Time;durP1;ratioP1;P1;durP2;ratioP2;P2;SDS_P1;SDS_P2;PMS_P1;PMS_P2;Temp;Humidity;BMP_temperature;BMP_pressure;BME280_temperature;BME280_humidity;BME280_pressure;Samples;Min_cycle;Max_cycle;Signal;HPM_P1;HPM_P2
2020/12/11 00:01:56;;;;;;;;;;;;;;;0.80;90.66;99383.72;5049099;28;19924;-72
2020/12/11 00:04:22;;;;;;;;;;;;;;;0.94;90.65;99385.69;5018309;28;19924;-72
2020/12/11 00:06:48;;;;;;;;;;;;;;;0.84;90.06;99380.53;5063556;28;19936;-72
2020/12/11 00:09:15;;;;;;;;;;;;;;;0.76;91.48;99369.81;5063505;28;20394;-72
2020/12/11 00:11:41;;;;;;;;;;;;;;;0.86;90.44;99366.94;5056931;28;19991;-71
2020/12/11 00:14:07;;;;;;;;;;;;;;;0.91;90.71;99360.03;5020369;28;19925;-72
2020/12/11 00:16:35;;;;;;;;;;;;;;;0.92;90.14;99355.53;5062208;28;19928;-72
2020/12/11 00:19:02;;;;;;;;;;;;;;;0.89;90.63;99353.19;5052079;28;19925;-71
2020/12/11 00:21:28;;;;;;;;;;;;;;;0.90;90.15;99360.22;5047420;28;20386;-71
2020/12/11 00:23:54;;;;;;;;;;;;;;;0.92;90.10;99355.53;5053417;28;20249;-72
2020/12/11 00:26:20;;;;;;;;;;;;;;;0.95;90.58;99355.16;5019437;28;19931;-72
2020/12/11 00:28:47;;;;;;;;;;;;;;;0.99;89.92;99357.31;5065955;28;19998;-72
2020/12/11 00:31:13;;;;;;;;;;;;;;;0.90;90.10;99358.38;5032434;28;20006;-71
2020/12/11 00:33:39;;;;;;;;;;;;;;;0.95;90.61;99358.69;5040919;28;19947;-72
2020/12/11 00:36:05;;;;;;;;;;;;;;;0.85;90.36;99354.53;5034553;28;20015;-71
2020/12/11 00:38:32;;;;;;;;;;;;;;;0.90;90.70;99357.53;5063340;28;20019;-72
2020/12/11 00:40:58;;;;;;;;;;;;;;;0.85;90.61;99357.22;5054001;28;19931;-71
2020/12/11 00:43:24;;;;;;;;;;;;;;;0.76;91.29;99359.09;5070126;28;19925;-72
2020/12/11 00:45:51;;;;;;;;;;;;;;;0.90;90.89;99368.25;5066393;28;19926;-72
2020/12/11 00:48:17;;;;;;;;;;;;;;;0.94;90.78;99361.53;5049566;28;20387;-72
2020/12/11 00:50:43;;;;;;;;;;;;;;;0.92;90.86;99358.19;5043142;28;19924;-72
2020/12/11 00:53:10;;;;;;;;;;;;;;;0.89;91.03;99358.56;5027858;28;20500;-71
2020/12/11 00:55:36;;;;;;;;;;;;;;;0.77;91.36;99357.25;5047457;28;19924;-72
2020/12/11 00:58:02;;;;;;;;;;;;;;;0.77;91.42;99360.78;5066047;28;20360;-72
2020/12/11 01:00:29;;;;;;;;;;;;;;;0.78;90.89;99365.13;5066499;28;19924;-72
2020/12/11 01:02:55;;;;;;;;;;;;;;;0.75;91.78;99359.28;5063434;28;19925;-72
2020/12/11 01:05:21;;;;;;;;;;;;;;;0.72;92.00;99360.44;5059654;28;19928;-72
2020/12/11 01:07:47;;;;;;;;;;;;;;;0.78;91.91;99351.72;5062897;28;19925;-72
2020/12/11 01:10:14;;;;;;;;;;;;;;;0.82;91.46;99349.53;5049016;28;20338;-72
2020/12/11 01:12:40;;;;;;;;;;;;;;;0.74;91.61;99353.06;5046583;28;20391;-72
2020/12/11 01:15:06;;;;;;;;;;;;;;;0.78;92.15;99346.34;5068743;28;19925;-72
2020/12/11 01:17:32;;;;;;;;;;;;;;;0.74;91.89;99342.34;5051574;28;19931;-71
2020/12/11 01:19:58;;;;;;;;;;;;;;;0.70;92.29;99341.03;5068470;28;19928;-72
2020/12/11 01:22:25;;;;;;;;;;;;;;;0.83;92.53;99335.09;5043284;28;19925;-72
2020/12/11 01:24:51;;;;;;;;;;;;;;;0.84;92.06;99326.88;5048274;28;19979;-71
2020/12/11 01:27:18;;;;;;;;;;;;;;;0.88;92.32;99333.56;5052562;28;20409;-72
2020/12/11 01:29:44;;;;;;;;;;;;;;;0.90;91.34;99330.72;5043141;28;20342;-72
2020/12/11 01:32:10;;;;;;;;;;;;;;;0.91;91.63;99332.38;5059559;28;19963;-72
2020/12/11 01:34:36;;;;;;;;;;;;;;;0.94;91.38;99337.41;5054751;28;19953;-72
2020/12/11 01:37:03;;;;;;;;;;;;;;;0.93;91.62;99333.06;5059924;28;19932;-72
2020/12/11 01:39:32;;;;;;;;;;;;;;;0.90;91.60;99323.50;5044377;28;19931;-72
2020/12/11 01:41:59;;;;;;;;;;;;;;;0.92;91.64;99329.53;5052782;28;19924;-72
2020/12/11 01:44:26;;;;;;;;;;;;;;;0.91;92.07;99332.38;5057273;28;20011;-72
2020/12/11 01:46:55;;;;;;;;;;;;;;;0.94;91.82;99326.69;5024705;28;19993;-72
2020/12/11 01:49:21;;;;;;;;;;;;;;;0.92;91.86;99323.34;5049199;28;19924;-72
2020/12/11 01:51:48;;;;;;;;;;;;;;;0.95;91.07;99314.94;5051038;28;19925;-72
2020/12/11 01:54:14;;;;;;;;;;;;;;;0.80;91.91;99320.19;5047418;28;19956;-71
2020/12/11 01:56:40;;;;;;;;;;;;;;;0.87;92.29;99314.97;5044904;28;19925;-71
2020/12/11 01:59:08;;;;;;;;;;;;;;;0.84;92.58;99318.00;5064042;28;19932;-71
2020/12/11 02:01:34;;;;;;;;;;;;;;;0.92;91.77;99312.59;5040950;28;19936;-72
2020/12/11 02:04:03;;;;;;;;;;;;;;;0.89;92.15;99308.44;5038725;28;19932;-72
2020/12/11 02:06:30;;;;;;;;;;;;;;;0.93;92.13;99306.22;5031375;28;19924;-71
2020/12/11 02:08:56;;;;;;;;;;;;;;;0.88;92.01;99300.56;5063543;28;20042;-72
2020/12/11 02:11:23;;;;;;;;;;;;;;;0.98;92.40;99295.81;5056876;28;20311;-71
2020/12/11 02:13:49;;;;;;;;;;;;;;;1.06;91.78;99286.84;5045120;28;20373;-71
2020/12/11 02:16:22;;;;;;;;;;;;;;;1.05;91.30;99291.38;5048158;28;19928;-71
2020/12/11 02:18:52;;;;;;;;;;;;;;;1.06;91.85;99281.47;5064372;28;19947;-71
2020/12/11 02:21:18;;;;;;;;;;;;;;;1.03;92.47;99288.06;5065366;28;19940;-71
2020/12/11 02:23:44;;;;;;;;;;;;;;;0.95;92.39;99288.94;5035403;28;20315;-72
2020/12/11 02:26:11;;;;;;;;;;;;;;;0.96;92.65;99289.78;5042365;28;19924;-71
2020/12/11 02:28:37;;;;;;;;;;;;;;;0.97;93.12;99288.78;5068810;28;20011;-71
2020/12/11 02:31:04;;;;;;;;;;;;;;;1.03;92.88;99282.72;5067135;28;20283;-71
2020/12/11 02:33:30;;;;;;;;;;;;;;;0.92;93.37;99286.63;5031604;28;19931;-71
2020/12/11 02:35:56;;;;;;;;;;;;;;;0.91;93.50;99290.31;5059819;28;19924;-72
2020/12/11 02:38:23;;;;;;;;;;;;;;;0.95;93.04;99277.38;5065496;28;20536;-71
2020/12/11 02:40:50;;;;;;;;;;;;;;;0.88;93.12;99282.63;5062163;28;20069;-72
2020/12/11 02:43:17;;;;;;;;;;;;;;;0.86;93.61;99275.75;5067131;28;19925;-71
2020/12/11 02:45:47;;;;;;;;;;;;;;;0.92;93.21;99278.56;5069337;28;19951;-71
2020/12/11 02:48:13;;;;;;;;;;;;;;;0.93;93.38;99257.97;5051887;28;19925;-72
2020/12/11 02:50:44;;;;;;;;;;;;;;;0.97;93.45;99259.28;5068275;28;19962;-71
2020/12/11 02:53:10;;;;;;;;;;;;;;;0.94;93.93;99252.41;5069101;28;20412;-71
2020/12/11 02:55:37;;;;;;;;;;;;;;;0.98;93.32;99250.22;5069511;28;19925;-72
2020/12/11 02:58:03;;;;;;;;;;;;;;;0.93;93.67;99250.75;5053353;28;19928;-72
2020/12/11 03:00:29;;;;;;;;;;;;;;;0.99;93.40;99243.84;5063104;28;20550;-71
2020/12/11 03:02:56;;;;;;;;;;;;;;;0.99;93.30;99242.00;5053669;28;20408;-72
2020/12/11 03:05:22;;;;;;;;;;;;;;;1.02;93.35;99238.13;5052436;28;19997;-71
2020/12/11 03:07:48;;;;;;;;;;;;;;;0.94;93.26;99240.84;5068994;28;19924;-71
2020/12/11 03:10:15;;;;;;;;;;;;;;;1.00;93.56;99232.09;5053335;28;19925;-72
2020/12/11 03:12:41;;;;;;;;;;;;;;;1.01;93.85;99236.44;5069791;28;19925;-71
2020/12/11 03:15:07;;;;;;;;;;;;;;;1.01;93.44;99233.75;5069495;28;20019;-72
2020/12/11 03:17:34;;;;;;;;;;;;;;;0.99;93.09;99220.53;5069483;28;19936;-71
2020/12/11 03:20:00;;;;;;;;;;;;;;;0.99;93.75;99225.06;5070834;28;19924;-71
2020/12/11 03:22:27;;;;;;;;;;;;;;;0.99;93.13;99212.47;5069341;28;19947;-71
2020/12/11 03:24:53;;;;;;;;;;;;;;;1.08;93.47;99217.75;5035458;28;19925;-71
2020/12/11 03:27:20;;;;;;;;;;;;;;;1.06;93.00;99212.56;5068226;28;19929;-71
2020/12/11 03:29:46;;;;;;;;;;;;;;;1.03;92.96;99212.97;5051838;28;19931;-72
2020/12/11 03:32:12;;;;;;;;;;;;;;;1.02;93.33;99213.97;5068804;28;19924;-71
2020/12/11 03:34:39;;;;;;;;;;;;;;;1.09;92.74;99214.91;5069240;28;19994;-72
2020/12/11 03:37:05;;;;;;;;;;;;;;;1.13;92.55;99218.06;5068960;28;19994;-72
2020/12/11 03:39:31;;;;;;;;;;;;;;;1.03;93.22;99217.50;5070276;28;19931;-72
2020/12/11 03:41:57;;;;;;;;;;;;;;;0.93;93.43;99220.41;5068915;23;20617;-68
2020/12/11 03:44:24;;;;;;;;;;;;;;;1.08;92.87;99210.56;5071710;28;20216;-68
2020/12/11 03:46:50;;;;;;;;;;;;;;;1.09;92.83;99206.84;5052722;28;19925;-68
2020/12/11 03:49:16;;;;;;;;;;;;;;;1.05;92.86;99205.53;5051254;28;19975;-68
2020/12/11 03:51:43;;;;;;;;;;;;;;;1.04;92.95;99203.88;5011224;28;19933;-68
2020/12/11 03:54:09;;;;;;;;;;;;;;;1.12;92.59;99201.13;5031356;28;19968;-68
2020/12/11 03:56:35;;;;;;;;;;;;;;;1.06;93.06;99192.97;5035804;28;20376;-68
2020/12/11 03:59:02;;;;;;;;;;;;;;;1.10;92.98;99191.59;5045495;28;19967;-68
2020/12/11 04:01:28;;;;;;;;;;;;;;;1.03;92.86;99196.88;5019768;28;19925;-68
2020/12/11 04:03:55;;;;;;;;;;;;;;;0.98;92.97;99191.22;5051711;28;20016;-68
2020/12/11 04:06:21;;;;;;;;;;;;;;;1.02;93.59;99183.63;5051160;28;19971;-68
2020/12/11 04:08:47;;;;;;;;;;;;;;;0.96;93.99;99179.81;5034779;28;19925;-68
2020/12/11 04:11:13;;;;;;;;;;;;;;;0.99;93.25;99174.09;5034322;28;19929;-68
2020/12/11 04:13:40;;;;;;;;;;;;;;;1.10;93.37;99165.59;5038400;28;19957;-68
2020/12/11 04:16:06;;;;;;;;;;;;;;;1.07;93.27;99167.81;5038547;28;19932;-68
2020/12/11 04:18:32;;;;;;;;;;;;;;;1.04;93.33;99155.59;5021906;28;19952;-68
2020/12/11 04:20:59;;;;;;;;;;;;;;;1.05;93.50;99151.06;5021887;28;19925;-68
2020/12/11 04:23:25;;;;;;;;;;;;;;;1.02;93.16;99146.09;5021819;28;19936;-68
2020/12/11 04:25:52;;;;;;;;;;;;;;;0.97;93.37;99146.63;5034776;28;19926;-68
2020/12/11 04:28:19;;;;;;;;;;;;;;;0.93;93.25;99146.16;5034472;28;20334;-68
2020/12/11 04:30:47;;;;;;;;;;;;;;;0.97;93.57;99152.00;5035021;28;19929;-68
2020/12/11 04:33:13;;;;;;;;;;;;;;;0.97;93.58;99147.47;5024065;28;19931;-68
2020/12/11 04:35:40;;;;;;;;;;;;;;;1.10;93.57;99141.44;5020232;28;20343;-68
2020/12/11 04:38:06;;;;;;;;;;;;;;;1.08;93.57;99146.16;5002173;28;19940;-68
2020/12/11 04:40:32;;;;;;;;;;;;;;;1.03;93.31;99159.31;5022913;28;20048;-68
2020/12/11 04:42:58;;;;;;;;;;;;;;;0.96;94.23;99155.69;5023538;28;19932;-68
2020/12/11 04:45:24;;;;;;;;;;;;;;;0.97;94.02;99146.63;5018271;28;20024;-68
2020/12/11 04:47:54;;;;;;;;;;;;;;;0.96;94.15;99142.28;5023932;28;19972;-68
2020/12/11 04:50:20;;;;;;;;;;;;;;;0.90;94.32;99137.63;5018152;28;20387;-68
2020/12/11 04:52:48;;;;;;;;;;;;;;;0.91;94.31;99134.75;5033803;28;19932;-68
2020/12/11 04:55:15;;;;;;;;;;;;;;;0.90;94.79;99135.78;5026153;28;19925;-68
2020/12/11 04:57:43;;;;;;;;;;;;;;;0.97;94.72;99138.56;5050999;28;20345;-68
2020/12/11 05:00:10;;;;;;;;;;;;;;;0.84;94.43;99132.97;5017595;28;19933;-68
2020/12/11 05:02:38;;;;;;;;;;;;;;;0.90;94.66;99137.63;5018248;28;19932;-68
2020/12/11 05:05:04;;;;;;;;;;;;;;;0.85;94.61;99131.97;5034939;28;19940;-69
2020/12/11 05:07:30;;;;;;;;;;;;;;;0.85;94.26;99134.66;5050474;28;19936;-68
2020/12/11 05:09:57;;;;;;;;;;;;;;;0.81;94.34;99130.66;5023400;28;19952;-68
2020/12/11 05:12:24;;;;;;;;;;;;;;;0.75;94.99;99124.16;5022718;28;19975;-68
2020/12/11 05:15:03;;;;;;;;;;;;;;;0.83;94.79;99131.31;5034726;28;19932;-68
2020/12/11 05:17:31;;;;;;;;;;;;;;;0.82;94.69;99124.28;5018745;28;19932;-68
2020/12/11 05:19:58;;;;;;;;;;;;;;;0.85;94.60;99129.28;5018158;28;19925;-67
2020/12/11 05:22:31;;;;;;;;;;;;;;;0.95;94.40;99129.88;5018986;28;19979;-69
2020/12/11 05:24:57;;;;;;;;;;;;;;;0.94;94.83;99128.22;5034842;28;19986;-67
2020/12/11 05:27:28;;;;;;;;;;;;;;;0.81;94.48;99120.75;5022633;28;20017;-68
2020/12/11 05:29:55;;;;;;;;;;;;;;;0.96;94.59;99120.81;5017416;28;19925;-68
2020/12/11 05:32:40;;;;;;;;;;;;;;;0.92;94.31;99119.50;5048485;28;19925;-67
2020/12/11 05:35:18;;;;;;;;;;;;;;;1.09;94.73;99125.53;5033826;28;19940;-68
2020/12/11 05:37:47;;;;;;;;;;;;;;;0.85;94.57;99124.75;5016594;28;19939;-67
2020/12/11 05:40:16;;;;;;;;;;;;;;;0.92;94.14;99124.88;5032977;28;19925;-67
2020/12/11 05:42:42;;;;;;;;;;;;;;;1.08;94.09;99116.66;5018702;28;19926;-68
2020/12/11 05:45:16;;;;;;;;;;;;;;;1.06;93.18;99117.84;5017823;28;19932;-68
2020/12/11 05:47:42;;;;;;;;;;;;;;;0.98;92.74;99124.16;5018310;28;19940;-68
2020/12/11 05:50:09;;;;;;;;;;;;;;;0.88;92.96;99108.31;5039049;28;20017;-68
2020/12/11 05:52:36;;;;;;;;;;;;;;;0.84;93.74;99115.03;5017042;28;20015;-68
2020/12/11 05:55:02;;;;;;;;;;;;;;;0.78;93.63;99107.72;5015319;28;19925;-68
2020/12/11 05:57:28;;;;;;;;;;;;;;;0.79;94.02;99101.34;5047416;28;19928;-68
2020/12/11 05:59:55;;;;;;;;;;;;;;;0.85;94.04;99114.03;5018682;28;19925;-68
2020/12/11 06:02:21;;;;;;;;;;;;;;;0.84;94.11;99112.34;5030900;28;19931;-68
2020/12/11 06:04:47;;;;;;;;;;;;;;;0.85;94.19;99107.84;5032010;28;19969;-67
2020/12/11 06:07:14;;;;;;;;;;;;;;;0.90;94.20;99100.91;5014924;28;20277;-68
2020/12/11 06:09:41;;;;;;;;;;;;;;;0.91;94.55;99091.03;5014638;28;19926;-68
2020/12/11 06:12:08;;;;;;;;;;;;;;;0.92;94.10;99096.22;5017946;28;19961;-68
2020/12/11 06:14:39;;;;;;;;;;;;;;;0.93;94.07;99095.19;5012492;28;19926;-68
2020/12/11 06:17:06;;;;;;;;;;;;;;;0.94;94.31;99087.97;4998702;28;20012;-68
2020/12/11 06:19:34;;;;;;;;;;;;;;;0.84;94.34;99084.72;5017231;28;20402;-67
2020/12/11 06:22:00;;;;;;;;;;;;;;;0.99;94.78;99081.06;5037497;28;19961;-67
2020/12/11 06:24:29;;;;;;;;;;;;;;;0.93;94.48;99083.63;5047809;28;20438;-68
2020/12/11 06:26:56;;;;;;;;;;;;;;;0.87;94.02;99079.00;5047808;28;20399;-68
2020/12/11 06:29:26;;;;;;;;;;;;;;;0.98;93.78;99070.50;5017093;28;19975;-68
2020/12/11 06:31:53;;;;;;;;;;;;;;;0.95;93.30;99065.50;5028042;28;19925;-68
2020/12/11 06:34:21;;;;;;;;;;;;;;;0.93;93.64;99067.53;5031784;28;20049;-68
2020/12/11 06:36:48;;;;;;;;;;;;;;;0.90;93.85;99067.91;5031978;28;19933;-67
2020/12/11 06:39:33;;;;;;;;;;;;;;;0.87;94.13;99062.91;5012096;28;19940;-68
2020/12/11 06:41:59;;;;;;;;;;;;;;;0.94;94.72;99069.22;5030016;28;19925;-67
2020/12/11 06:44:25;;;;;;;;;;;;;;;0.92;94.14;99068.56;5013930;28;20069;-68
2020/12/11 06:47:04;;;;;;;;;;;;;;;0.89;93.84;99082.31;5027474;28;20268;-68
2020/12/11 06:49:31;;;;;;;;;;;;;;;0.89;93.38;99076.97;5029872;28;19932;-67
2020/12/11 06:51:57;;;;;;;;;;;;;;;0.89;93.72;99076.97;5013842;28;19932;-68
2020/12/11 06:54:27;;;;;;;;;;;;;;;0.79;93.23;99071.00;5031713;28;20509;-68
2020/12/11 06:56:55;;;;;;;;;;;;;;;0.82;93.73;99076.00;5030768;28;20309;-68
2020/12/11 06:59:22;;;;;;;;;;;;;;;0.77;93.60;99068.50;5014965;28;19925;-68
2020/12/11 07:01:52;;;;;;;;;;;;;;;0.77;93.36;99073.03;5032613;28;19972;-67
2020/12/11 07:04:19;;;;;;;;;;;;;;;0.81;93.27;99067.13;5019500;28;19925;-68
2020/12/11 07:06:49;;;;;;;;;;;;;;;0.83;92.95;99072.31;5030666;28;20019;-68
2020/12/11 07:09:16;;;;;;;;;;;;;;;0.78;93.39;99082.75;5018388;28;19933;-68
2020/12/11 07:11:42;;;;;;;;;;;;;;;0.82;93.46;99071.47;5044828;28;20453;-68
2020/12/11 07:14:09;;;;;;;;;;;;;;;0.87;93.01;99073.63;5000007;28;19952;-68
2020/12/11 07:16:39;;;;;;;;;;;;;;;0.82;93.54;99070.66;5016409;28;20383;-68
2020/12/11 07:19:05;;;;;;;;;;;;;;;0.90;93.37;99089.34;5034381;28;20110;-68
2020/12/11 07:21:32;;;;;;;;;;;;;;;0.90;93.39;99081.31;5034502;28;19925;-67
2020/12/11 07:23:59;;;;;;;;;;;;;;;0.97;92.85;99080.41;5033557;28;20306;-68
2020/12/11 07:26:25;;;;;;;;;;;;;;;0.84;92.84;99080.19;5050214;28;19933;-68
2020/12/11 07:29:01;;;;;;;;;;;;;;;0.87;92.63;99079.00;5017166;28;19971;-68
2020/12/11 07:31:27;;;;;;;;;;;;;;;0.87;92.31;99082.50;5008169;28;20100;-68
2020/12/11 07:33:54;;;;;;;;;;;;;;;0.83;92.42;99077.69;5033929;28;20391;-67
2020/12/11 07:36:20;;;;;;;;;;;;;;;0.90;92.41;99078.63;5034710;28;19925;-68
2020/12/11 07:38:46;;;;;;;;;;;;;;;1.01;91.33;99075.50;5050502;28;19928;-68
2020/12/11 07:41:16;;;;;;;;;;;;;;;1.03;90.86;99078.84;5035094;28;19925;-68
2020/12/11 07:43:46;;;;;;;;;;;;;;;1.03;91.05;99065.44;5034339;28;19933;-68
2020/12/11 07:46:20;;;;;;;;;;;;;;;1.06;90.82;99070.41;5027503;28;19926;-68
2020/12/11 07:48:50;;;;;;;;;;;;;;;0.86;91.38;99072.78;5036450;28;19936;-68
2020/12/11 07:51:17;;;;;;;;;;;;;;;0.88;91.29;99061.88;5019499;28;19929;-68
2020/12/11 07:53:53;;;;;;;;;;;;;;;1.08;91.28;99060.31;5034912;28;19971;-67
2020/12/11 07:56:25;;;;;;;;;;;;;;;1.12;90.64;99058.94;5018689;28;19975;-68
2020/12/11 07:58:52;;;;;;;;;;;;;;;1.17;89.90;99059.22;5036507;28;19968;-68
2020/12/11 08:01:18;;;;;;;;;;;;;;;1.11;90.46;99053.75;5053109;28;19995;-68
2020/12/11 08:03:44;;;;;;;;;;;;;;;1.20;90.30;99058.88;5061081;28;19932;-67
2020/12/11 08:06:11;;;;;;;;;;;;;;;1.09;90.31;99061.16;5046176;28;19925;-67
2020/12/11 08:08:38;;;;;;;;;;;;;;;1.23;90.09;99055.81;5035605;28;20386;-68
2020/12/11 08:11:05;;;;;;;;;;;;;;;1.25;89.86;99056.47;5033158;28;19968;-68
2020/12/11 08:13:31;;;;;;;;;;;;;;;1.33;89.73;99053.69;5017529;28;20486;-68
2020/12/11 08:16:01;;;;;;;;;;;;;;;1.19;90.37;99051.84;5001532;28;19925;-68
2020/12/11 08:18:28;;;;;;;;;;;;;;;1.36;90.01;99047.13;5020981;28;20425;-68
2020/12/11 08:20:56;;;;;;;;;;;;;;;1.44;89.20;99046.16;5033172;28;20326;-67
2020/12/11 08:23:23;;;;;;;;;;;;;;;1.48;89.13;99048.28;5033502;28;19935;-68
2020/12/11 08:26:10;;;;;;;;;;;;;;;1.60;88.85;99046.81;5033172;28;19925;-68
2020/12/11 08:28:36;;;;;;;;;;;;;;;1.55;88.52;99043.03;5049757;28;19983;-68
2020/12/11 08:31:35;;;;;;;;;;;;;;;1.52;88.55;99041.53;5015848;28;19925;-68
2020/12/11 08:34:06;;;;;;;;;;;;;;;1.60;88.58;99029.88;5039326;28;20020;-68
2020/12/11 08:36:33;;;;;;;;;;;;;;;1.55;88.47;99033.13;5019074;28;19925;-68
2020/12/11 08:39:05;;;;;;;;;;;;;;;1.68;88.58;99025.22;5032769;28;20318;-68
2020/12/11 08:41:33;;;;;;;;;;;;;;;1.79;87.81;99021.19;5032636;28;20366;-68
2020/12/11 08:44:01;;;;;;;;;;;;;;;1.79;87.86;99010.47;5015681;28;19925;-68
2020/12/11 08:46:55;;;;;;;;;;;;;;;1.89;87.42;99004.78;5016582;28;20414;-67
2020/12/11 08:49:29;;;;;;;;;;;;;;;2.00;86.45;99007.81;5020681;28;19925;-68
2020/12/11 08:51:55;;;;;;;;;;;;;;;2.09;86.48;99011.19;5032754;28;19925;-68
2020/12/11 08:54:26;;;;;;;;;;;;;;;2.16;86.54;99006.72;5033245;28;20343;-67
2020/12/11 08:56:52;;;;;;;;;;;;;;;2.15;86.13;99007.75;5031997;28;19998;-68
2020/12/11 08:59:18;;;;;;;;;;;;;;;2.24;86.41;99006.59;5032200;28;20006;-68
2020/12/11 09:01:47;;;;;;;;;;;;;;;2.35;85.64;98999.88;5001351;28;20343;-68
2020/12/11 09:04:14;;;;;;;;;;;;;;;2.38;85.45;99004.03;5033437;28;20298;-68
2020/12/11 09:06:43;;;;;;;;;;;;;;;2.50;84.98;99003.31;5045263;28;19925;-68
2020/12/11 09:09:09;;;;;;;;;;;;;;;2.60;84.78;98998.44;5048009;28;19936;-68
2020/12/11 09:11:36;;;;;;;;;;;;;;;2.62;84.58;98993.69;5026165;28;19933;-68
2020/12/11 09:14:02;;;;;;;;;;;;;;;2.75;84.38;98995.66;5020647;28;19932;-67
2020/12/11 09:16:28;;;;;;;;;;;;;;;2.76;84.06;98993.81;5041089;28;19987;-68
2020/12/11 09:18:55;;;;;;;;;;;;;;;2.75;83.89;98997.53;5026135;28;19932;-67
2020/12/11 09:21:21;;;;;;;;;;;;;;;2.66;84.26;98992.28;5023787;28;20334;-68
2020/12/11 09:23:48;;;;;;;;;;;;;;;2.69;84.32;98991.88;5038073;28;19996;-68
2020/12/11 09:26:14;;;;;;;;;;;;;;;2.65;84.02;98993.31;5023779;28;20025;-68
2020/12/11 09:28:44;;;;;;;;;;;;;;;2.64;84.41;98988.94;5023027;28;19925;-68
2020/12/11 09:31:14;;;;;;;;;;;;;;;2.50;85.19;98983.66;5038581;28;19931;-68
2020/12/11 09:33:43;;;;;;;;;;;;;;;2.58;84.98;98989.72;5034626;28;19933;-68
2020/12/11 09:36:10;;;;;;;;;;;;;;;2.81;84.18;98983.25;5032821;28;19952;-68
2020/12/11 09:38:36;;;;;;;;;;;;;;;2.82;83.96;98975.00;5048329;28;20474;-68
2020/12/11 09:41:04;;;;;;;;;;;;;;;2.78;84.37;98973.72;5056468;23;21458;-71
2020/12/11 09:49:04;;;;;;;;;;;;;;;3.14;82.79;98964.63;5036332;28;19925;-71
2020/12/11 09:54:10;;;;;;;;;;;;;;;3.10;83.70;98956.13;5051491;28;20311;-71
2020/12/11 09:56:36;;;;;;;;;;;;;;;3.17;83.12;98946.22;5050563;28;20015;-71
2020/12/11 09:59:48;;;;;;;;;;;;;;;3.20;83.13;98951.19;5050237;28;19983;-71
2020/12/11 10:04:30;;;;;;;;;;;;;;;3.51;82.57;98925.63;5051067;28;19925;-71
2020/12/11 10:06:57;;;;;;;;;;;;;;;3.44;82.18;98924.81;5051058;28;19935;-71
2020/12/11 10:09:23;;;;;;;;;;;;;;;3.49;82.29;98925.00;5048696;28;20361;-71
2020/12/11 10:11:53;;;;;;;;;;;;;;;3.34;82.61;98920.63;5049671;28;20205;-71
2020/12/11 10:14:40;;;;;;;;;;;;;;;3.38;82.37;98910.28;5034241;28;20378;-71
2020/12/11 10:17:09;;;;;;;;;;;;;;;3.37;82.74;98908.63;5055854;28;19932;-71
2020/12/11 10:19:35;;;;;;;;;;;;;;;3.52;82.37;98911.97;5050272;28;20024;-71
2020/12/11 10:22:02;;;;;;;;;;;;;;;3.60;81.57;98897.50;5049746;28;19925;-71
2020/12/11 10:24:28;;;;;;;;;;;;;;;3.57;81.95;98893.34;5050210;28;20398;-71
2020/12/11 10:26:54;;;;;;;;;;;;;;;3.64;81.73;98896.06;5050120;28;19935;-71
2020/12/11 10:29:22;;;;;;;;;;;;;;;3.67;81.81;98888.41;5050018;28;19924;-71
2020/12/11 10:31:48;;;;;;;;;;;;;;;3.72;81.80;98887.78;5034106;28;20339;-71
2020/12/11 10:34:16;;;;;;;;;;;;;;;3.72;81.26;98879.72;5050401;28;20440;-71
2020/12/11 10:36:42;;;;;;;;;;;;;;;3.80;81.59;98876.81;5049944;28;19932;-71
2020/12/11 10:39:09;;;;;;;;;;;;;;;3.66;81.20;98883.22;5017765;28;20023;-71
2020/12/11 10:41:39;;;;;;;;;;;;;;;3.72;80.81;98879.72;5043797;28;19932;-71
2020/12/11 10:44:06;;;;;;;;;;;;;;;3.82;81.27;98868.50;5050354;28;19956;-71
2020/12/11 10:46:32;;;;;;;;;;;;;;;3.89;80.53;98867.47;5051721;28;20302;-72
2020/12/11 10:48:59;;;;;;;;;;;;;;;3.82;80.97;98863.94;5051142;28;19948;-71
2020/12/11 10:51:25;;;;;;;;;;;;;;;3.64;81.73;98861.88;5051446;28;19974;-71
2020/12/11 10:53:51;;;;;;;;;;;;;;;3.70;82.14;98871.00;5049923;28;19924;-71
2020/12/11 10:56:19;;;;;;;;;;;;;;;3.88;80.21;98863.13;5017107;28;19925;-71
2020/12/11 10:58:49;;;;;;;;;;;;;;;4.01;80.73;98857.75;5049798;28;19956;-72
2020/12/11 11:01:15;;;;;;;;;;;;;;;4.10;79.93;98846.78;5049039;28;20425;-71
2020/12/11 11:03:42;;;;;;;;;;;;;;;4.10;79.41;98850.28;5049653;28;19932;-71
2020/12/11 11:11:58;;;;;;;;;;;;;;;4.09;81.53;98834.31;4969672;28;19934;-71
2020/12/11 11:17:48;;;;;;;;;;;;;;;4.47;78.07;98826.41;5036973;28;20416;-71
2020/12/11 11:29:58;;;;;;;;;;;;;;;4.39;78.60;98819.34;5048008;28;19925;-71
2020/12/11 11:32:25;;;;;;;;;;;;;;;4.36;79.00;98812.50;5048910;28;19924;-72
2020/12/11 11:34:51;;;;;;;;;;;;;;;4.34;79.32;98802.97;5032389;28;19932;-72
2020/12/11 11:37:18;;;;;;;;;;;;;;;4.28;79.54;98803.81;5045077;28;19929;-71
2020/12/11 11:39:44;;;;;;;;;;;;;;;4.29;79.36;98800.06;5050014;28;20028;-71
2020/12/11 11:42:10;;;;;;;;;;;;;;;4.34;79.51;98798.41;5048254;28;19924;-71
2020/12/11 11:44:48;;;;;;;;;;;;;;;4.23;80.24;98800.91;5046250;28;19925;-71
2020/12/11 11:47:15;;;;;;;;;;;;;;;4.10;80.31;98811.72;5050039;28;19983;-71
2020/12/11 11:49:58;;;;;;;;;;;;;;;4.23;80.10;98796.34;5049008;28;20405;-72
2020/12/11 11:55:11;;;;;;;;;;;;;;;4.41;79.54;98784.91;5053261;28;19931;-72
2020/12/11 11:57:37;;;;;;;;;;;;;;;4.47;79.65;98784.06;5032865;28;19932;-71
2020/12/11 12:00:04;;;;;;;;;;;;;;;4.52;79.31;98783.41;5049801;28;19978;-71
2020/12/11 12:02:34;;;;;;;;;;;;;;;4.54;79.25;98781.31;5048938;28;19929;-71
2020/12/11 12:05:01;;;;;;;;;;;;;;;4.46;79.67;98777.00;5033050;28;20354;-72
2020/12/11 12:07:28;;;;;;;;;;;;;;;4.46;79.48;98778.88;5047435;28;20039;-71
2020/12/11 12:09:55;;;;;;;;;;;;;;;4.56;79.22;98777.38;5049096;28;19933;-71
2020/12/11 12:12:21;;;;;;;;;;;;;;;4.58;79.05;98778.00;5042557;28;19924;-71
2020/12/11 12:14:49;;;;;;;;;;;;;;;4.57;79.30;98781.72;5049108;28;19925;-71
2020/12/11 12:17:18;;;;;;;;;;;;;;;4.55;79.18;98780.28;5029740;28;19939;-71
2020/12/11 12:19:48;;;;;;;;;;;;;;;4.62;78.72;98776.53;5052511;28;19933;-72
2020/12/11 12:27:41;;;;;;;;;;;;;;;4.83;78.13;98758.41;5038398;28;20305;-71
2020/12/11 12:30:08;;;;;;;;;;;;;;;4.92;78.31;98752.53;5046466;28;19924;-71
2020/12/11 12:32:46;;;;;;;;;;;;;;;4.74;79.07;98754.28;5048322;28;19975;-71
2020/12/11 12:35:34;;;;;;;;;;;;;;;4.88;78.17;98750.47;5035657;28;20016;-72
2020/12/11 12:37:59;;;;;;;;;;;;;;;5.11;77.61;98756.16;5040453;28;20315;-71
2020/12/11 12:40:49;;;;;;;;;;;;;;;5.02;78.05;98757.47;5036186;28;20012;-72
2020/12/11 12:43:19;;;;;;;;;;;;;;;4.88;77.92;98753.97;5044883;28;19925;-72
2020/12/11 12:45:46;;;;;;;;;;;;;;;4.80;78.56;98748.03;5052603;28;19924;-71
2020/12/11 12:48:12;;;;;;;;;;;;;;;4.83;79.23;98753.00;5041581;28;19925;-71
2020/12/11 12:50:39;;;;;;;;;;;;;;;4.78;78.79;98744.72;5035417;28;20012;-71
2020/12/11 12:53:05;;;;;;;;;;;;;;;4.71;79.31;98748.28;5053802;28;19929;-72
2020/12/11 12:55:42;;;;;;;;;;;;;;;4.77;79.23;98743.88;5030571;28;20499;-71
2020/12/11 12:58:11;;;;;;;;;;;;;;;4.67;79.69;98738.94;5011481;28;19924;-72
2020/12/11 13:00:50;;;;;;;;;;;;;;;4.93;77.62;98729.88;5033250;28;20468;-72
2020/12/11 13:05:58;;;;;;;;;;;;;;;5.17;77.05;98716.66;5038611;28;19931;-71
2020/12/11 13:08:24;;;;;;;;;;;;;;;5.04;77.30;98721.09;5029837;28;19933;-71
2020/12/11 13:10:51;;;;;;;;;;;;;;;5.11;77.34;98715.66;5040532;28;19932;-71
2020/12/11 13:13:17;;;;;;;;;;;;;;;5.04;77.53;98713.00;5036196;28;19925;-72
2020/12/11 13:15:45;;;;;;;;;;;;;;;5.02;76.00;98717.78;5052180;28;20011;-71
2020/12/11 13:18:11;;;;;;;;;;;;;;;5.20;75.16;98716.25;5019182;28;20038;-71
2020/12/11 13:20:41;;;;;;;;;;;;;;;5.10;74.83;98719.41;5035113;28;19974;-71
2020/12/11 13:28:36;;;;;;;;;;;;;;;5.04;72.74;98704.06;5036197;28;19940;-71
2020/12/11 13:31:03;;;;;;;;;;;;;;;4.95;72.85;98706.19;5014895;28;20383;-71
2020/12/11 13:33:29;;;;;;;;;;;;;;;5.03;72.08;98703.25;5041410;28;19925;-71
2020/12/11 13:35:56;;;;;;;;;;;;;;;4.90;72.95;98705.19;5035325;28;19993;-71
2020/12/11 13:38:23;;;;;;;;;;;;;;;4.93;72.33;98710.16;5030134;28;19926;-71
2020/12/11 13:40:50;;;;;;;;;;;;;;;4.91;72.96;98709.53;5037039;28;20322;-71
2020/12/11 13:43:16;;;;;;;;;;;;;;;4.95;72.31;98697.28;5039230;28;19929;-72
2020/12/11 13:45:42;;;;;;;;;;;;;;;4.91;72.37;98701.44;5034380;28;20011;-71
2020/12/11 13:48:09;;;;;;;;;;;;;;;4.87;72.56;98697.53;5032975;28;19940;-72